sensor_id;sensor_type;location;lat;lon;timestamp;temperature;humidity
18281;DHT22;9266;51.132;17.062;2023-02-28T00:00:37;0.70;1.00
18281;DHT22;9266;51.132;17.062;2023-02-28T00:03:04;0.60;13.10
18281;DHT22;9266;51.132;17.062;2023-02-28T00:05:32;0.50;22.80
18281;DHT22;9266;51.132;17.062;2023-02-28T00:07:59;0.60;42.50
18281;DHT22;9266;51.132;17.062;2023-02-28T00:10:28;0.60;14.50
18281;DHT22;9266;51.132;17.062;2023-02-28T00:12:59;0.60;6.30
18281;DHT22;9266;51.132;17.062;2023-02-28T00:15:27;0.70;1.00
18281;DHT22;9266;51.132;17.062;2023-02-28T00:17:54;0.60;2.20
18281;DHT22;9266;51.132;17.062;2023-02-28T00:20:22;0.60;1.60
18281;DHT22;9266;51.132;17.062;2023-02-28T00:22:50;0.60;6.10
18281;DHT22;9266;51.132;17.062;2023-02-28T00:25:19;0.60;1.00
18281;DHT22;9266;51.132;17.062;2023-02-28T00:27:47;0.60;27.90
18281;DHT22;9266;51.132;17.062;2023-02-28T00:30:16;0.50;54.40
18281;DHT22;9266;51.132;17.062;2023-02-28T00:32:45;0.50;63.70
18281;DHT22;9266;51.132;17.062;2023-02-28T00:35:13;0.60;92.20
18281;DHT22;9266;51.132;17.062;2023-02-28T00:37:40;0.70;92.80
18281;DHT22;9266;51.132;17.062;2023-02-28T00:40:08;0.80;4.60
18281;DHT22;9266;51.132;17.062;2023-02-28T00:42:37;0.90;1.00
18281;DHT22;9266;51.132;17.062;2023-02-28T00:45:05;0.90;1.00
18281;DHT22;9266;51.132;17.062;2023-02-28T00:47:33;0.90;1.00
18281;DHT22;9266;51.132;17.062;2023-02-28T00:50:03;0.90;1.00
18281;DHT22;9266;51.132;17.062;2023-02-28T00:52:30;0.90;1.00
18281;DHT22;9266;51.132;17.062;2023-02-28T00:54:57;0.80;1.00
18281;DHT22;9266;51.132;17.062;2023-02-28T00:57:24;0.80;1.00
18281;DHT22;9266;51.132;17.062;2023-02-28T00:59:52;0.90;1.00
18281;DHT22;9266;51.132;17.062;2023-02-28T01:02:20;0.80;1.00
18281;DHT22;9266;51.132;17.062;2023-02-28T01:04:47;0.80;1.00
18281;DHT22;9266;51.132;17.062;2023-02-28T01:07:16;0.80;1.00
18281;DHT22;9266;51.132;17.062;2023-02-28T01:09:43;0.70;1.00
18281;DHT22;9266;51.132;17.062;2023-02-28T01:12:10;0.80;1.00
18281;DHT22;9266;51.132;17.062;2023-02-28T01:14:37;0.80;1.00
18281;DHT22;9266;51.132;17.062;2023-02-28T01:17:04;0.80;1.00
18281;DHT22;9266;51.132;17.062;2023-02-28T01:19:31;0.70;1.00
18281;DHT22;9266;51.132;17.062;2023-02-28T01:22:01;0.60;1.00
18281;DHT22;9266;51.132;17.062;2023-02-28T01:24:30;0.70;1.00
18281;DHT22;9266;51.132;17.062;2023-02-28T01:26:57;0.60;1.00
18281;DHT22;9266;51.132;17.062;2023-02-28T01:29:24;0.60;1.00
18281;DHT22;9266;51.132;17.062;2023-02-28T01:31:52;0.60;1.80
18281;DHT22;9266;51.132;17.062;2023-02-28T01:34:19;0.50;27.10
18281;DHT22;9266;51.132;17.062;2023-02-28T01:36:46;0.50;47.20
18281;DHT22;9266;51.132;17.062;2023-02-28T01:39:13;0.60;1.00
18281;DHT22;9266;51.132;17.062;2023-02-28T01:41:41;0.60;1.00
18281;DHT22;9266;51.132;17.062;2023-02-28T01:47:08;0.70;1.00
18281;DHT22;9266;51.132;17.062;2023-02-28T01:49:36;0.60;1.00
18281;DHT22;9266;51.132;17.062;2023-02-28T01:52:03;0.60;1.00
18281;DHT22;9266;51.132;17.062;2023-02-28T01:54:31;0.60;1.00
18281;DHT22;9266;51.132;17.062;2023-02-28T01:57:04;0.70;1.00
18281;DHT22;9266;51.132;17.062;2023-02-28T01:59:35;0.80;1.00
18281;DHT22;9266;51.132;17.062;2023-02-28T02:02:06;0.80;1.00
18281;DHT22;9266;51.132;17.062;2023-02-28T02:04:38;0.80;1.00
18281;DHT22;9266;51.132;17.062;2023-02-28T02:07:07;0.80;1.00
18281;DHT22;9266;51.132;17.062;2023-02-28T02:09:34;0.80;1.00
18281;DHT22;9266;51.132;17.062;2023-02-28T02:12:11;0.80;1.00
18281;DHT22;9266;51.132;17.062;2023-02-28T02:14:52;0.90;1.00
18281;DHT22;9266;51.132;17.062;2023-02-28T02:17:28;0.80;1.00
18281;DHT22;9266;51.132;17.062;2023-02-28T02:23:07;0.70;1.00
18281;DHT22;9266;51.132;17.062;2023-02-28T02:25:39;0.80;1.00
18281;DHT22;9266;51.132;17.062;2023-02-28T02:28:40;0.70;1.00
18281;DHT22;9266;51.132;17.062;2023-02-28T02:34:36;0.50;1.00
18281;DHT22;9266;51.132;17.062;2023-02-28T02:37:14;0.50;10.50
18281;DHT22;9266;51.132;17.062;2023-02-28T02:39:48;0.50;24.40
18281;DHT22;9266;51.132;17.062;2023-02-28T02:42:23;0.50;68.10
18281;DHT22;9266;51.132;17.062;2023-02-28T02:44:58;0.60;25.30
18281;DHT22;9266;51.132;17.062;2023-02-28T02:47:29;0.70;1.00
18281;DHT22;9266;51.132;17.062;2023-02-28T02:50:02;0.70;1.00
18281;DHT22;9266;51.132;17.062;2023-02-28T02:52:35;0.80;1.00
18281;DHT22;9266;51.132;17.062;2023-02-28T02:55:04;0.80;7.30
18281;DHT22;9266;51.132;17.062;2023-02-28T02:57:35;0.80;1.00
18281;DHT22;9266;51.132;17.062;2023-02-28T03:00:04;0.70;1.00
18281;DHT22;9266;51.132;17.062;2023-02-28T03:02:35;0.70;1.00
18281;DHT22;9266;51.132;17.062;2023-02-28T03:05:08;0.50;1.00
18281;DHT22;9266;51.132;17.062;2023-02-28T03:07:36;0.50;64.80
18281;DHT22;9266;51.132;17.062;2023-02-28T03:12:50;0.40;40.00
18281;DHT22;9266;51.132;17.062;2023-02-28T03:15:24;0.50;81.50
18281;DHT22;9266;51.132;17.062;2023-02-28T03:18:01;0.50;28.40
18281;DHT22;9266;51.132;17.062;2023-02-28T03:20:39;0.50;34.30
18281;DHT22;9266;51.132;17.062;2023-02-28T03:23:15;0.40;98.20
18281;DHT22;9266;51.132;17.062;2023-02-28T03:25:54;0.40;99.90
18281;DHT22;9266;51.132;17.062;2023-02-28T03:28:31;0.50;99.90
18281;DHT22;9266;51.132;17.062;2023-02-28T03:31:00;0.60;99.90
18281;DHT22;9266;51.132;17.062;2023-02-28T03:33:33;0.70;97.30
18281;DHT22;9266;51.132;17.062;2023-02-28T03:36:07;0.70;99.90
18281;DHT22;9266;51.132;17.062;2023-02-28T03:38:40;0.80;79.20
18281;DHT22;9266;51.132;17.062;2023-02-28T03:41:13;0.80;60.90
18281;DHT22;9266;51.132;17.062;2023-02-28T03:43:43;0.70;99.90
18281;DHT22;9266;51.132;17.062;2023-02-28T03:46:14;0.60;99.90
18281;DHT22;9266;51.132;17.062;2023-02-28T03:48:45;0.60;99.90
18281;DHT22;9266;51.132;17.062;2023-02-28T03:51:16;0.60;99.90
18281;DHT22;9266;51.132;17.062;2023-02-28T03:53:46;0.60;99.90
18281;DHT22;9266;51.132;17.062;2023-02-28T03:56:19;0.60;73.70
18281;DHT22;9266;51.132;17.062;2023-02-28T03:58:53;0.70;99.80
18281;DHT22;9266;51.132;17.062;2023-02-28T04:01:25;0.70;81.50
18281;DHT22;9266;51.132;17.062;2023-02-28T04:03:54;0.80;11.70
18281;DHT22;9266;51.132;17.062;2023-02-28T04:06:23;0.60;1.00
18281;DHT22;9266;51.132;17.062;2023-02-28T04:08:50;0.50;19.90
18281;DHT22;9266;51.132;17.062;2023-02-28T04:11:23;0.40;31.00
18281;DHT22;9266;51.132;17.062;2023-02-28T04:13:54;0.40;29.30
18281;DHT22;9266;51.132;17.062;2023-02-28T04:16:21;0.40;58.10
18281;DHT22;9266;51.132;17.062;2023-02-28T04:18:49;0.50;61.80
18281;DHT22;9266;51.132;17.062;2023-02-28T04:21:16;0.60;18.90
18281;DHT22;9266;51.132;17.062;2023-02-28T04:23:47;0.70;1.00
18281;DHT22;9266;51.132;17.062;2023-02-28T04:26:15;0.70;1.00
18281;DHT22;9266;51.132;17.062;2023-02-28T04:28:42;0.80;1.00
18281;DHT22;9266;51.132;17.062;2023-02-28T04:31:09;0.70;1.00
18281;DHT22;9266;51.132;17.062;2023-02-28T04:33:36;0.70;1.00
18281;DHT22;9266;51.132;17.062;2023-02-28T04:36:06;0.60;1.00
18281;DHT22;9266;51.132;17.062;2023-02-28T04:38:35;0.70;1.00
18281;DHT22;9266;51.132;17.062;2023-02-28T04:41:04;0.60;1.00
18281;DHT22;9266;51.132;17.062;2023-02-28T04:43:32;0.60;1.00
18281;DHT22;9266;51.132;17.062;2023-02-28T04:46:02;0.50;1.00
18281;DHT22;9266;51.132;17.062;2023-02-28T04:48:30;0.50;1.00
18281;DHT22;9266;51.132;17.062;2023-02-28T04:51:00;0.40;1.00
18281;DHT22;9266;51.132;17.062;2023-02-28T04:53:28;0.40;1.00
18281;DHT22;9266;51.132;17.062;2023-02-28T04:55:55;0.50;1.00
18281;DHT22;9266;51.132;17.062;2023-02-28T04:58:23;0.40;1.00
18281;DHT22;9266;51.132;17.062;2023-02-28T05:00:51;0.40;1.00
18281;DHT22;9266;51.132;17.062;2023-02-28T05:03:19;0.30;1.00
18281;DHT22;9266;51.132;17.062;2023-02-28T05:05:47;0.30;1.00
18281;DHT22;9266;51.132;17.062;2023-02-28T05:08:14;0.50;17.30
18281;DHT22;9266;51.132;17.062;2023-02-28T05:10:42;0.60;1.00
18281;DHT22;9266;51.132;17.062;2023-02-28T05:13:11;0.50;1.00
18281;DHT22;9266;51.132;17.062;2023-02-28T05:15:39;0.60;1.00
18281;DHT22;9266;51.132;17.062;2023-02-28T05:18:08;0.80;1.00
18281;DHT22;9266;51.132;17.062;2023-02-28T05:20:35;0.80;1.00
18281;DHT22;9266;51.132;17.062;2023-02-28T05:23:03;0.80;1.00
18281;DHT22;9266;51.132;17.062;2023-02-28T05:25:30;0.70;1.00
18281;DHT22;9266;51.132;17.062;2023-02-28T05:27:57;0.70;1.00
18281;DHT22;9266;51.132;17.062;2023-02-28T05:30:24;0.60;1.00
18281;DHT22;9266;51.132;17.062;2023-02-28T05:32:53;0.70;1.00
18281;DHT22;9266;51.132;17.062;2023-02-28T05:35:20;0.80;1.00
18281;DHT22;9266;51.132;17.062;2023-02-28T05:37:47;0.80;1.00
18281;DHT22;9266;51.132;17.062;2023-02-28T05:40:14;0.80;1.00
18281;DHT22;9266;51.132;17.062;2023-02-28T05:42:42;0.70;1.00
18281;DHT22;9266;51.132;17.062;2023-02-28T05:45:10;0.70;1.00
18281;DHT22;9266;51.132;17.062;2023-02-28T05:47:37;0.70;1.00
18281;DHT22;9266;51.132;17.062;2023-02-28T05:50:08;0.60;1.00
18281;DHT22;9266;51.132;17.062;2023-02-28T05:52:36;0.60;1.00
18281;DHT22;9266;51.132;17.062;2023-02-28T05:55:03;0.50;1.00
18281;DHT22;9266;51.132;17.062;2023-02-28T05:57:30;0.60;1.00
18281;DHT22;9266;51.132;17.062;2023-02-28T05:59:59;0.70;1.00
18281;DHT22;9266;51.132;17.062;2023-02-28T06:02:26;0.80;1.00
18281;DHT22;9266;51.132;17.062;2023-02-28T06:04:53;0.80;1.00
18281;DHT22;9266;51.132;17.062;2023-02-28T06:07:22;0.80;1.00
18281;DHT22;9266;51.132;17.062;2023-02-28T06:09:49;0.70;1.00
18281;DHT22;9266;51.132;17.062;2023-02-28T06:12:16;0.80;1.00
18281;DHT22;9266;51.132;17.062;2023-02-28T06:14:43;0.70;1.00
18281;DHT22;9266;51.132;17.062;2023-02-28T06:17:10;0.70;1.00
18281;DHT22;9266;51.132;17.062;2023-02-28T06:19:37;0.70;1.00
18281;DHT22;9266;51.132;17.062;2023-02-28T06:22:07;1.10;1.00
18281;DHT22;9266;51.132;17.062;2023-02-28T06:24:35;1.80;1.00
18281;DHT22;9266;51.132;17.062;2023-02-28T06:27:02;2.40;1.00
18281;DHT22;9266;51.132;17.062;2023-02-28T06:29:31;2.60;1.00
18281;DHT22;9266;51.132;17.062;2023-02-28T06:31:58;3.00;1.00
18281;DHT22;9266;51.132;17.062;2023-02-28T06:34:25;3.10;1.00
18281;DHT22;9266;51.132;17.062;2023-02-28T06:36:52;3.00;1.00
18281;DHT22;9266;51.132;17.062;2023-02-28T06:39:20;3.40;1.00
18281;DHT22;9266;51.132;17.062;2023-02-28T06:41:48;4.40;1.00
18281;DHT22;9266;51.132;17.062;2023-02-28T06:44:18;5.10;99.90
18281;DHT22;9266;51.132;17.062;2023-02-28T06:46:45;4.70;99.90
18281;DHT22;9266;51.132;17.062;2023-02-28T06:49:16;5.00;1.00
18281;DHT22;9266;51.132;17.062;2023-02-28T06:51:44;5.20;99.90
18281;DHT22;9266;51.132;17.062;2023-02-28T06:54:12;5.20;99.90
18281;DHT22;9266;51.132;17.062;2023-02-28T06:56:40;5.60;99.90
18281;DHT22;9266;51.132;17.062;2023-02-28T06:59:08;5.70;99.90
18281;DHT22;9266;51.132;17.062;2023-02-28T07:01:35;6.00;99.90
18281;DHT22;9266;51.132;17.062;2023-02-28T07:04:05;5.90;99.90
18281;DHT22;9266;51.132;17.062;2023-02-28T07:06:33;6.20;99.90
18281;DHT22;9266;51.132;17.062;2023-02-28T07:09:00;6.70;99.90
18281;DHT22;9266;51.132;17.062;2023-02-28T07:11:27;6.90;68.20
18281;DHT22;9266;51.132;17.062;2023-02-28T07:13:55;7.40;37.30
18281;DHT22;9266;51.132;17.062;2023-02-28T07:16:24;7.40;34.60
18281;DHT22;9266;51.132;17.062;2023-02-28T07:18:53;7.50;1.00
18281;DHT22;9266;51.132;17.062;2023-02-28T07:21:20;7.10;1.00
18281;DHT22;9266;51.132;17.062;2023-02-28T07:23:47;6.50;40.00
18281;DHT22;9266;51.132;17.062;2023-02-28T07:26:16;6.10;1.00
18281;DHT22;9266;51.132;17.062;2023-02-28T07:28:44;5.90;1.00
18281;DHT22;9266;51.132;17.062;2023-02-28T07:31:12;6.30;1.00
18281;DHT22;9266;51.132;17.062;2023-02-28T07:33:42;6.40;1.00
18281;DHT22;9266;51.132;17.062;2023-02-28T07:36:11;6.60;1.00
18281;DHT22;9266;51.132;17.062;2023-02-28T07:38:41;6.90;1.00
18281;DHT22;9266;51.132;17.062;2023-02-28T07:41:10;6.70;1.00
18281;DHT22;9266;51.132;17.062;2023-02-28T07:43:37;7.60;1.00
18281;DHT22;9266;51.132;17.062;2023-02-28T07:46:05;7.50;1.00
18281;DHT22;9266;51.132;17.062;2023-02-28T07:48:33;7.50;1.00
18281;DHT22;9266;51.132;17.062;2023-02-28T07:51:03;7.90;1.00
18281;DHT22;9266;51.132;17.062;2023-02-28T07:53:30;7.90;1.00
18281;DHT22;9266;51.132;17.062;2023-02-28T07:55:58;7.00;1.00
18281;DHT22;9266;51.132;17.062;2023-02-28T07:58:27;7.20;1.00
18281;DHT22;9266;51.132;17.062;2023-02-28T08:00:54;7.60;99.90
18281;DHT22;9266;51.132;17.062;2023-02-28T08:03:22;7.80;99.90
18281;DHT22;9266;51.132;17.062;2023-02-28T08:05:50;8.50;99.90
18281;DHT22;9266;51.132;17.062;2023-02-28T08:08:19;8.80;1.00
18281;DHT22;9266;51.132;17.062;2023-02-28T08:10:46;8.70;1.00
18281;DHT22;9266;51.132;17.062;2023-02-28T08:13:13;8.70;1.00
18281;DHT22;9266;51.132;17.062;2023-02-28T08:15:41;8.10;1.00
18281;DHT22;9266;51.132;17.062;2023-02-28T08:18:09;8.30;1.00
18281;DHT22;9266;51.132;17.062;2023-02-28T08:20:36;8.40;1.00
18281;DHT22;9266;51.132;17.062;2023-02-28T08:23:03;7.70;1.00
18281;DHT22;9266;51.132;17.062;2023-02-28T08:25:31;7.30;1.00
18281;DHT22;9266;51.132;17.062;2023-02-28T08:27:58;6.70;1.00
18281;DHT22;9266;51.132;17.062;2023-02-28T08:30:25;6.20;1.00
18281;DHT22;9266;51.132;17.062;2023-02-28T08:32:52;6.30;1.00
18281;DHT22;9266;51.132;17.062;2023-02-28T08:35:20;6.10;1.00
18281;DHT22;9266;51.132;17.062;2023-02-28T08:37:47;5.70;1.00
18281;DHT22;9266;51.132;17.062;2023-02-28T08:40:15;5.50;1.00
18281;DHT22;9266;51.132;17.062;2023-02-28T08:42:45;5.10;1.00
18281;DHT22;9266;51.132;17.062;2023-02-28T08:45:13;5.50;1.00
18281;DHT22;9266;51.132;17.062;2023-02-28T08:47:41;5.50;1.00
18281;DHT22;9266;51.132;17.062;2023-02-28T08:50:09;5.40;1.00
18281;DHT22;9266;51.132;17.062;2023-02-28T08:52:36;5.20;1.00
18281;DHT22;9266;51.132;17.062;2023-02-28T08:55:04;4.70;1.00
18281;DHT22;9266;51.132;17.062;2023-02-28T08:57:32;4.50;1.00
18281;DHT22;9266;51.132;17.062;2023-02-28T09:00:01;4.20;1.00
18281;DHT22;9266;51.132;17.062;2023-02-28T09:02:30;3.90;1.00
18281;DHT22;9266;51.132;17.062;2023-02-28T09:04:57;3.40;1.00
18281;DHT22;9266;51.132;17.062;2023-02-28T09:07:24;3.10;1.00
18281;DHT22;9266;51.132;17.062;2023-02-28T09:09:51;3.20;1.00
18281;DHT22;9266;51.132;17.062;2023-02-28T09:12:21;3.30;1.00
18281;DHT22;9266;51.132;17.062;2023-02-28T09:14:48;3.40;1.00
18281;DHT22;9266;51.132;17.062;2023-02-28T09:17:17;3.10;1.00
18281;DHT22;9266;51.132;17.062;2023-02-28T09:19:45;3.10;1.00
18281;DHT22;9266;51.132;17.062;2023-02-28T09:22:14;3.30;1.00
18281;DHT22;9266;51.132;17.062;2023-02-28T09:24:42;3.30;1.00
18281;DHT22;9266;51.132;17.062;2023-02-28T09:27:11;3.30;1.00
18281;DHT22;9266;51.132;17.062;2023-02-28T09:29:38;3.40;1.00
18281;DHT22;9266;51.132;17.062;2023-02-28T09:32:06;3.40;1.00
18281;DHT22;9266;51.132;17.062;2023-02-28T09:34:34;3.60;1.00
18281;DHT22;9266;51.132;17.062;2023-02-28T09:37:02;3.70;1.00
18281;DHT22;9266;51.132;17.062;2023-02-28T09:39:30;3.90;1.00
18281;DHT22;9266;51.132;17.062;2023-02-28T09:41:58;3.90;1.00
18281;DHT22;9266;51.132;17.062;2023-02-28T09:44:30;3.80;1.00
18281;DHT22;9266;51.132;17.062;2023-02-28T09:47:01;3.80;1.00
18281;DHT22;9266;51.132;17.062;2023-02-28T09:49:38;3.90;1.00
18281;DHT22;9266;51.132;17.062;2023-02-28T09:52:10;3.60;1.00
18281;DHT22;9266;51.132;17.062;2023-02-28T09:54:38;3.60;1.00
18281;DHT22;9266;51.132;17.062;2023-02-28T09:57:08;3.40;1.00
18281;DHT22;9266;51.132;17.062;2023-02-28T09:59:46;3.40;1.00
18281;DHT22;9266;51.132;17.062;2023-02-28T10:05:15;3.00;1.00
18281;DHT22;9266;51.132;17.062;2023-02-28T10:07:55;3.10;1.00
18281;DHT22;9266;51.132;17.062;2023-02-28T10:10:29;3.20;1.00
18281;DHT22;9266;51.132;17.062;2023-02-28T10:13:01;3.40;1.00
18281;DHT22;9266;51.132;17.062;2023-02-28T10:15:31;3.30;1.00
18281;DHT22;9266;51.132;17.062;2023-02-28T10:18:01;3.30;1.00
18281;DHT22;9266;51.132;17.062;2023-02-28T10:20:33;3.40;1.00
18281;DHT22;9266;51.132;17.062;2023-02-28T10:23:05;3.50;1.00
18281;DHT22;9266;51.132;17.062;2023-02-28T10:25:37;3.60;1.00
18281;DHT22;9266;51.132;17.062;2023-02-28T10:28:11;3.40;1.00
18281;DHT22;9266;51.132;17.062;2023-02-28T10:30:42;3.30;1.00
18281;DHT22;9266;51.132;17.062;2023-02-28T10:33:18;3.10;1.00
18281;DHT22;9266;51.132;17.062;2023-02-28T10:35:47;3.00;1.00
18281;DHT22;9266;51.132;17.062;2023-02-28T10:38:17;3.20;1.00
18281;DHT22;9266;51.132;17.062;2023-02-28T10:40:44;3.50;1.00
18281;DHT22;9266;51.132;17.062;2023-02-28T10:43:20;3.60;1.00
18281;DHT22;9266;51.132;17.062;2023-02-28T10:45:57;3.70;1.00
18281;DHT22;9266;51.132;17.062;2023-02-28T10:48:30;3.60;1.00
18281;DHT22;9266;51.132;17.062;2023-02-28T10:50:59;3.20;1.00
18281;DHT22;9266;51.132;17.062;2023-02-28T10:53:37;3.20;1.00
18281;DHT22;9266;51.132;17.062;2023-02-28T10:56:13;3.20;1.00
18281;DHT22;9266;51.132;17.062;2023-02-28T10:58:49;3.30;1.00
18281;DHT22;9266;51.132;17.062;2023-02-28T11:01:19;3.30;1.00
18281;DHT22;9266;51.132;17.062;2023-02-28T11:03:46;3.60;1.00
18281;DHT22;9266;51.132;17.062;2023-02-28T11:06:17;3.60;1.00
18281;DHT22;9266;51.132;17.062;2023-02-28T11:08:49;2.50;1.00
18281;DHT22;9266;51.132;17.062;2023-02-28T11:11:17;3.70;1.00
18281;DHT22;9266;51.132;17.062;2023-02-28T11:13:46;3.50;1.00
18281;DHT22;9266;51.132;17.062;2023-02-28T11:16:15;3.60;1.00
18281;DHT22;9266;51.132;17.062;2023-02-28T11:18:47;3.80;1.00
18281;DHT22;9266;51.132;17.062;2023-02-28T11:21:22;4.10;1.00
18281;DHT22;9266;51.132;17.062;2023-02-28T11:23:52;3.60;1.00
18281;DHT22;9266;51.132;17.062;2023-02-28T11:26:41;3.50;1.00
18281;DHT22;9266;51.132;17.062;2023-02-28T11:29:20;3.50;1.00
18281;DHT22;9266;51.132;17.062;2023-02-28T11:32:04;3.70;1.00
18281;DHT22;9266;51.132;17.062;2023-02-28T11:34:32;3.80;1.00
18281;DHT22;9266;51.132;17.062;2023-02-28T11:37:01;3.80;1.00
18281;DHT22;9266;51.132;17.062;2023-02-28T11:39:30;4.00;1.00
18281;DHT22;9266;51.132;17.062;2023-02-28T11:45:16;3.70;1.00
18281;DHT22;9266;51.132;17.062;2023-02-28T11:47:48;4.00;1.00
18281;DHT22;9266;51.132;17.062;2023-02-28T11:50:36;4.30;1.00
18281;DHT22;9266;51.132;17.062;2023-02-28T11:53:17;4.40;1.00
18281;DHT22;9266;51.132;17.062;2023-02-28T11:55:49;4.50;1.00
18281;DHT22;9266;51.132;17.062;2023-02-28T11:58:31;4.60;1.00
18281;DHT22;9266;51.132;17.062;2023-02-28T12:01:14;4.70;1.00
18281;DHT22;9266;51.132;17.062;2023-02-28T12:03:54;4.70;1.00
18281;DHT22;9266;51.132;17.062;2023-02-28T12:06:30;4.40;1.00
18281;DHT22;9266;51.132;17.062;2023-02-28T12:09:13;4.40;1.00
18281;DHT22;9266;51.132;17.062;2023-02-28T12:11:51;4.40;1.00
18281;DHT22;9266;51.132;17.062;2023-02-28T12:14:30;4.30;1.00
18281;DHT22;9266;51.132;17.062;2023-02-28T12:17:08;4.30;1.00
18281;DHT22;9266;51.132;17.062;2023-02-28T12:19:45;4.40;1.00
18281;DHT22;9266;51.132;17.062;2023-02-28T12:22:27;4.40;1.00
18281;DHT22;9266;51.132;17.062;2023-02-28T12:27:46;4.50;1.00
18281;DHT22;9266;51.132;17.062;2023-02-28T12:30:17;4.40;1.00
18281;DHT22;9266;51.132;17.062;2023-02-28T12:32:48;4.30;1.00
18281;DHT22;9266;51.132;17.062;2023-02-28T12:35:19;4.30;1.00
18281;DHT22;9266;51.132;17.062;2023-02-28T12:37:54;4.30;1.00
18281;DHT22;9266;51.132;17.062;2023-02-28T12:40:27;4.20;1.00
18281;DHT22;9266;51.132;17.062;2023-02-28T12:42:58;4.20;1.00
18281;DHT22;9266;51.132;17.062;2023-02-28T12:45:41;4.30;1.00
18281;DHT22;9266;51.132;17.062;2023-02-28T12:48:11;4.10;1.00
18281;DHT22;9266;51.132;17.062;2023-02-28T12:50:41;4.10;1.00
18281;DHT22;9266;51.132;17.062;2023-02-28T12:53:15;4.20;1.00
18281;DHT22;9266;51.132;17.062;2023-02-28T12:55:56;4.40;1.00
18281;DHT22;9266;51.132;17.062;2023-02-28T12:58:30;4.10;1.00
18281;DHT22;9266;51.132;17.062;2023-02-28T13:04:36;4.00;1.00
18281;DHT22;9266;51.132;17.062;2023-02-28T13:07:38;4.00;1.00
18281;DHT22;9266;51.132;17.062;2023-02-28T13:10:10;3.90;1.00
18281;DHT22;9266;51.132;17.062;2023-02-28T13:12:48;3.90;1.00
18281;DHT22;9266;51.132;17.062;2023-02-28T13:15:18;3.90;1.00
18281;DHT22;9266;51.132;17.062;2023-02-28T13:17:50;3.80;1.00
18281;DHT22;9266;51.132;17.062;2023-02-28T13:20:19;3.80;1.00
18281;DHT22;9266;51.132;17.062;2023-02-28T13:22:48;3.90;1.00
18281;DHT22;9266;51.132;17.062;2023-02-28T13:34:41;4.30;1.00
18281;DHT22;9266;51.132;17.062;2023-02-28T13:37:32;4.50;1.00
18281;DHT22;9266;51.132;17.062;2023-02-28T13:40:28;4.70;1.00
18281;DHT22;9266;51.132;17.062;2023-02-28T13:42:56;4.50;1.00
18281;DHT22;9266;51.132;17.062;2023-02-28T13:45:26;4.60;1.00
18281;DHT22;9266;51.132;17.062;2023-02-28T13:47:58;4.40;1.00
18281;DHT22;9266;51.132;17.062;2023-02-28T13:50:32;4.40;1.00
18281;DHT22;9266;51.132;17.062;2023-02-28T13:53:33;4.40;1.00
18281;DHT22;9266;51.132;17.062;2023-02-28T13:56:18;4.60;1.00
18281;DHT22;9266;51.132;17.062;2023-02-28T13:58:54;4.50;1.00
18281;DHT22;9266;51.132;17.062;2023-02-28T14:01:35;5.30;1.00
18281;DHT22;9266;51.132;17.062;2023-02-28T14:04:37;4.60;1.00
18281;DHT22;9266;51.132;17.062;2023-02-28T14:07:08;4.60;1.00
18281;DHT22;9266;51.132;17.062;2023-02-28T14:09:38;4.40;1.00
18281;DHT22;9266;51.132;17.062;2023-02-28T14:15:46;4.40;1.00
18281;DHT22;9266;51.132;17.062;2023-02-28T14:18:23;4.20;1.00
18281;DHT22;9266;51.132;17.062;2023-02-28T14:20:57;4.10;1.00
18281;DHT22;9266;51.132;17.062;2023-02-28T14:23:39;4.10;1.00
18281;DHT22;9266;51.132;17.062;2023-02-28T14:26:19;4.20;1.00
18281;DHT22;9266;51.132;17.062;2023-02-28T14:29:01;4.20;1.00
18281;DHT22;9266;51.132;17.062;2023-02-28T14:31:37;4.20;1.00
18281;DHT22;9266;51.132;17.062;2023-02-28T14:34:22;4.10;1.00
18281;DHT22;9266;51.132;17.062;2023-02-28T14:36:54;4.10;1.00
18281;DHT22;9266;51.132;17.062;2023-02-28T14:39:26;4.00;1.00
18281;DHT22;9266;51.132;17.062;2023-02-28T14:41:56;4.00;1.00
18281;DHT22;9266;51.132;17.062;2023-02-28T14:44:28;3.90;1.00
18281;DHT22;9266;51.132;17.062;2023-02-28T14:46:57;3.80;1.00
18281;DHT22;9266;51.132;17.062;2023-02-28T14:49:32;3.80;1.00
18281;DHT22;9266;51.132;17.062;2023-02-28T14:52:06;3.90;1.00
18281;DHT22;9266;51.132;17.062;2023-02-28T14:54:35;3.80;1.00
18281;DHT22;9266;51.132;17.062;2023-02-28T14:57:03;3.80;1.00
18281;DHT22;9266;51.132;17.062;2023-02-28T14:59:32;3.80;1.00
18281;DHT22;9266;51.132;17.062;2023-02-28T15:02:20;3.90;1.00
18281;DHT22;9266;51.132;17.062;2023-02-28T15:04:55;3.90;1.00
18281;DHT22;9266;51.132;17.062;2023-02-28T15:07:24;4.00;1.00
18281;DHT22;9266;51.132;17.062;2023-02-28T15:10:15;4.00;1.00
18281;DHT22;9266;51.132;17.062;2023-02-28T15:12:49;3.90;1.00
18281;DHT22;9266;51.132;17.062;2023-02-28T15:15:19;3.90;1.00
18281;DHT22;9266;51.132;17.062;2023-02-28T15:17:50;3.80;1.00
18281;DHT22;9266;51.132;17.062;2023-02-28T15:20:18;3.70;1.00
18281;DHT22;9266;51.132;17.062;2023-02-28T15:22:49;3.70;1.00
18281;DHT22;9266;51.132;17.062;2023-02-28T15:25:20;3.80;1.00
18281;DHT22;9266;51.132;17.062;2023-02-28T15:27:50;3.70;1.00
18281;DHT22;9266;51.132;17.062;2023-02-28T15:30:19;3.80;1.00
18281;DHT22;9266;51.132;17.062;2023-02-28T15:33:04;3.70;1.00
18281;DHT22;9266;51.132;17.062;2023-02-28T15:35:32;3.60;1.00
18281;DHT22;9266;51.132;17.062;2023-02-28T15:38:03;3.60;1.00
18281;DHT22;9266;51.132;17.062;2023-02-28T15:40:33;3.60;1.00
18281;DHT22;9266;51.132;17.062;2023-02-28T15:43:05;3.60;1.00
18281;DHT22;9266;51.132;17.062;2023-02-28T15:45:36;3.40;1.00
18281;DHT22;9266;51.132;17.062;2023-02-28T15:48:17;3.40;1.00
18281;DHT22;9266;51.132;17.062;2023-02-28T15:50:46;3.40;1.00
18281;DHT22;9266;51.132;17.062;2023-02-28T15:53:19;3.40;1.00
18281;DHT22;9266;51.132;17.062;2023-02-28T15:55:54;3.40;1.00
18281;DHT22;9266;51.132;17.062;2023-02-28T15:58:21;3.80;1.00
18281;DHT22;9266;51.132;17.062;2023-02-28T16:01:05;3.20;1.00
18281;DHT22;9266;51.132;17.062;2023-02-28T16:03:41;3.20;1.00
18281;DHT22;9266;51.132;17.062;2023-02-28T16:06:34;3.10;1.00
18281;DHT22;9266;51.132;17.062;2023-02-28T16:09:05;3.10;1.00
18281;DHT22;9266;51.132;17.062;2023-02-28T16:11:35;3.10;1.00
18281;DHT22;9266;51.132;17.062;2023-02-28T16:14:04;3.00;1.00
18281;DHT22;9266;51.132;17.062;2023-02-28T16:16:32;2.90;1.00
18281;DHT22;9266;51.132;17.062;2023-02-28T16:19:00;2.90;1.00
18281;DHT22;9266;51.132;17.062;2023-02-28T16:21:27;2.80;1.00
18281;DHT22;9266;51.132;17.062;2023-02-28T16:23:54;2.70;1.00
18281;DHT22;9266;51.132;17.062;2023-02-28T16:26:24;2.60;1.00
18281;DHT22;9266;51.132;17.062;2023-02-28T16:28:53;2.50;1.00
18281;DHT22;9266;51.132;17.062;2023-02-28T16:31:21;2.50;1.00
18281;DHT22;9266;51.132;17.062;2023-02-28T16:33:48;2.40;1.00
18281;DHT22;9266;51.132;17.062;2023-02-28T16:36:18;2.30;1.00
18281;DHT22;9266;51.132;17.062;2023-02-28T16:38:45;2.30;1.00
18281;DHT22;9266;51.132;17.062;2023-02-28T16:41:17;2.30;1.00
18281;DHT22;9266;51.132;17.062;2023-02-28T16:43:48;2.20;1.00
18281;DHT22;9266;51.132;17.062;2023-02-28T16:46:16;2.10;1.00
18281;DHT22;9266;51.132;17.062;2023-02-28T16:48:43;2.00;1.00
18281;DHT22;9266;51.132;17.062;2023-02-28T16:51:15;1.90;1.00
18281;DHT22;9266;51.132;17.062;2023-02-28T16:53:43;1.80;1.00
18281;DHT22;9266;51.132;17.062;2023-02-28T16:56:16;1.70;1.00
18281;DHT22;9266;51.132;17.062;2023-02-28T16:58:43;1.70;1.00
18281;DHT22;9266;51.132;17.062;2023-02-28T17:01:13;1.60;1.00